createdAt,value
2023-04-10T00:00:09.388Z,25.300
2023-04-10T00:01:09.583Z,25.900
2023-04-10T00:02:10.243Z,25.000
2023-04-10T00:03:10.636Z,23.800
2023-04-10T00:04:12.015Z,25.600
2023-04-10T00:06:10.271Z,23.700
2023-04-10T00:07:09.439Z,23.300
2023-04-10T00:08:09.585Z,22.900
2023-04-10T00:09:09.796Z,23.900
2023-04-10T00:10:09.979Z,24.700
2023-04-10T00:11:10.134Z,24.900
2023-04-10T00:12:09.268Z,24.300
2023-04-10T00:13:09.371Z,23.100
2023-04-10T00:14:10.128Z,24.800
2023-04-10T00:15:09.291Z,25.200
2023-04-10T00:16:09.552Z,25.400
2023-04-10T00:17:10.208Z,24.200
2023-04-10T00:18:09.622Z,25.000
2023-04-10T00:19:09.795Z,23.400
2023-04-10T00:20:09.964Z,24.000
2023-04-10T00:21:10.080Z,24.400
2023-04-10T00:22:10.203Z,25.400
2023-04-10T00:23:09.451Z,24.700
2023-04-10T00:24:10.282Z,25.100
2023-04-10T00:25:09.419Z,24.400
2023-04-10T00:26:09.627Z,25.200
2023-04-10T00:27:09.830Z,23.100
2023-04-10T00:28:09.935Z,24.800
2023-04-10T00:29:10.047Z,25.300
2023-04-10T00:30:10.230Z,26.800
2023-04-10T00:31:09.443Z,26.300
2023-04-10T00:32:09.898Z,25.800
2023-04-10T00:33:10.603Z,25.900
2023-04-10T00:34:10.635Z,25.000
2023-04-10T00:35:09.771Z,24.300
2023-04-10T00:36:10.176Z,25.200
2023-04-10T00:37:09.419Z,25.700
2023-04-10T00:38:10.520Z,27.000
2023-04-10T00:39:10.120Z,23.600
2023-04-10T00:40:10.509Z,23.400
2023-04-10T00:41:09.619Z,24.100
2023-04-10T00:42:09.844Z,26.100
2023-04-10T00:44:10.100Z,24.500
2023-04-10T00:45:10.250Z,23.300
2023-04-10T00:46:09.582Z,23.700
2023-04-10T00:47:09.995Z,24.500
2023-04-10T00:48:10.536Z,24.600
2023-04-10T00:49:09.713Z,22.100
2023-04-10T00:50:10.063Z,24.300
2023-04-10T00:51:10.211Z,24.200
2023-04-10T00:52:09.386Z,24.500
2023-04-10T00:53:09.635Z,23.800
2023-04-10T00:54:10.411Z,23.900
2023-04-10T00:55:09.608Z,23.900
2023-04-10T00:56:09.826Z,23.700
2023-04-10T00:57:10.048Z,24.300
2023-04-10T00:58:10.202Z,24.000
2023-04-10T00:59:09.448Z,24.000
2023-04-10T01:00:09.831Z,23.700
2023-04-10T01:01:10.345Z,23.500
2023-04-10T01:02:10.191Z,24.300
2023-04-10T01:03:10.269Z,24.700
2023-04-10T01:04:11.488Z,24.400
2023-04-10T01:05:10.161Z,22.800
2023-04-10T01:06:09.301Z,24.900
2023-04-10T01:07:09.369Z,25.200
2023-04-10T01:08:09.559Z,23.300
2023-04-10T01:09:09.715Z,22.900
2023-04-10T01:10:09.960Z,25.900
2023-04-10T01:11:10.173Z,23.700
2023-04-10T01:12:09.281Z,23.300
2023-04-10T01:13:09.544Z,24.400
2023-04-10T01:14:10.266Z,24.100
2023-04-10T01:15:09.446Z,23.900
2023-04-10T01:16:09.624Z,23.800
2023-04-10T01:17:10.266Z,25.300
2023-04-10T01:18:09.859Z,24.300
2023-04-10T01:19:10.012Z,25.300
2023-04-10T01:20:10.202Z,24.700
2023-04-10T01:21:09.359Z,25.300
2023-04-10T01:22:09.576Z,24.700
2023-04-10T01:23:09.936Z,26.000
2023-04-10T01:24:11.257Z,24.700
2023-04-10T01:26:09.745Z,25.600
2023-04-10T01:27:09.966Z,24.400
2023-04-10T01:28:10.134Z,24.800
2023-04-10T01:29:10.321Z,25.800
2023-04-10T01:30:09.480Z,24.700
2023-04-10T01:31:09.919Z,24.600
2023-04-10T01:32:10.281Z,23.600
2023-04-10T01:33:09.648Z,24.800
2023-04-10T01:34:10.582Z,26.400
2023-04-10T01:35:09.811Z,24.600
2023-04-10T01:36:10.338Z,24.600
2023-04-10T01:37:09.557Z,25.900
2023-04-10T01:38:10.781Z,24.100
2023-04-10T01:39:09.961Z,23.500
2023-04-10T01:40:10.155Z,25.000
2023-04-10T01:41:09.288Z,24.800
2023-04-10T01:42:09.468Z,24.300
2023-04-10T01:43:09.679Z,23.300
2023-04-10T01:44:10.279Z,25.000
2023-04-10T01:46:09.752Z,24.800
2023-04-10T01:47:10.070Z,23.500
2023-04-10T01:48:10.515Z,24.800
2023-04-10T01:49:09.678Z,24.000
2023-04-10T01:50:09.909Z,24.600
2023-04-10T01:51:10.235Z,23.600
2023-04-10T01:52:09.372Z,25.600
2023-04-10T01:53:09.602Z,24.700
2023-04-10T01:54:10.611Z,24.100
2023-04-10T01:55:09.791Z,25.000
2023-04-10T01:56:09.962Z,25.300
2023-04-10T01:57:10.301Z,23.400
2023-04-10T01:58:09.528Z,25.100
2023-04-10T01:59:09.735Z,25.100
2023-04-10T02:00:10.354Z,23.100
2023-04-10T02:01:16.572Z,25.100
2023-04-10T02:03:10.948Z,25.200
2023-04-10T02:04:11.273Z,25.000
2023-04-10T02:05:09.609Z,25.000
2023-04-10T02:06:10.114Z,25.800
2023-04-10T02:07:10.496Z,25.100
2023-04-10T02:08:09.609Z,25.300
2023-04-10T02:09:09.839Z,24.700
2023-04-10T02:10:10.043Z,24.300
2023-04-10T02:11:10.244Z,24.500
2023-04-10T02:12:09.440Z,24.900
2023-04-10T02:13:09.623Z,25.000
2023-04-10T02:14:10.568Z,25.200
2023-04-10T02:15:09.750Z,23.800
2023-04-10T02:16:10.136Z,25.200
2023-04-10T02:17:09.355Z,24.700
2023-04-10T02:18:09.879Z,22.900
2023-04-10T02:19:10.194Z,23.200
2023-04-10T02:20:09.400Z,24.200
2023-04-10T02:21:09.666Z,24.600
2023-04-10T02:22:09.903Z,25.000
2023-04-10T02:23:10.086Z,24.100
2023-04-10T02:24:10.715Z,24.200
2023-04-10T02:25:09.880Z,24.200
2023-04-10T02:26:10.092Z,23.600
2023-04-10T02:27:10.280Z,25.100
2023-04-10T02:28:09.411Z,25.700
2023-04-10T02:29:09.900Z,23.700
2023-04-10T02:30:10.056Z,24.100
2023-04-10T02:31:10.460Z,23.700
2023-04-10T02:32:09.905Z,25.500
2023-04-10T02:33:10.135Z,26.600
2023-04-10T02:34:09.713Z,25.100
2023-04-10T02:35:09.969Z,24.800
2023-04-10T02:36:10.379Z,25.100
2023-04-10T02:37:09.672Z,23.500
2023-04-10T02:38:09.899Z,25.200
2023-04-10T02:39:10.082Z,24.000
2023-04-10T02:40:10.241Z,25.900
2023-04-10T02:41:09.396Z,25.200
2023-04-10T02:42:09.572Z,24.400
2023-04-10T02:43:09.797Z,25.600
2023-04-10T02:44:11.383Z,24.700
2023-04-10T02:47:10.265Z,26.400
2023-04-10T02:48:09.424Z,26.000
2023-04-10T02:49:09.580Z,26.000
2023-04-10T02:50:09.860Z,25.000
2023-04-10T02:51:10.215Z,25.000
2023-04-10T02:52:09.471Z,26.400
2023-04-10T02:53:09.640Z,24.100
2023-04-10T02:54:10.591Z,24.900
2023-04-10T02:55:09.885Z,25.700
2023-04-10T02:56:10.131Z,24.400
2023-04-10T02:57:09.406Z,26.000
2023-04-10T02:58:09.564Z,25.400
2023-04-10T02:59:09.290Z,25.600
2023-04-10T03:00:09.489Z,25.600
2023-04-10T03:01:09.712Z,25.100
2023-04-10T03:02:10.419Z,25.500
2023-04-10T03:03:10.123Z,25.700
2023-04-10T03:04:10.793Z,26.500
2023-04-10T03:05:10.368Z,25.500
2023-04-10T03:08:10.062Z,25.900
2023-04-10T03:09:10.428Z,26.800
2023-04-10T03:10:09.696Z,26.500
2023-04-10T03:11:09.856Z,27.300
2023-04-10T03:12:10.027Z,30.800
2023-04-10T03:13:10.197Z,29.200
2023-04-10T03:14:10.235Z,28.900
2023-04-10T03:15:09.371Z,26.800
2023-04-10T03:16:09.645Z,28.700
2023-04-10T03:17:10.300Z,26.300
2023-04-10T03:18:09.694Z,28.100
2023-04-10T03:19:09.850Z,29.100
2023-04-10T03:20:10.087Z,27.600
2023-04-10T03:21:09.316Z,28.700
2023-04-10T03:22:09.451Z,29.100
2023-04-10T03:23:09.789Z,26.900
2023-04-10T03:24:10.485Z,27.300
2023-04-10T03:25:09.723Z,28.400
2023-04-10T03:26:09.876Z,28.400
2023-04-10T03:27:10.294Z,28.700
2023-04-10T03:28:09.352Z,26.900
2023-04-10T03:29:09.437Z,27.400
2023-04-10T03:30:09.630Z,26.300
2023-04-10T03:31:10.048Z,26.400
2023-04-10T03:32:10.415Z,26.000
2023-04-10T03:33:10.014Z,26.400
2023-04-10T03:34:11.289Z,24.400
2023-04-10T03:35:09.504Z,26.000
2023-04-10T03:36:09.909Z,26.700
2023-04-10T03:37:10.032Z,26.500
2023-04-10T03:38:10.214Z,24.700
2023-04-10T03:39:09.336Z,25.600
2023-04-10T03:40:09.488Z,25.600
2023-04-10T03:41:09.619Z,25.200
2023-04-10T03:42:09.795Z,24.900
2023-04-10T03:43:09.991Z,25.100
2023-04-10T03:44:10.892Z,24.500
2023-04-10T03:45:09.972Z,23.800
2023-04-10T03:46:10.147Z,26.300
2023-04-10T03:47:09.702Z,24.500
2023-04-10T03:48:10.337Z,26.100
2023-04-10T03:49:09.612Z,23.900
2023-04-10T03:50:09.804Z,26.400
2023-04-10T03:51:10.131Z,26.100
2023-04-10T03:52:09.336Z,26.600
2023-04-10T03:53:09.496Z,27.900
2023-04-10T03:54:10.455Z,26.400
2023-04-10T03:55:09.580Z,25.500
2023-04-10T03:56:09.841Z,26.500
2023-04-10T03:57:10.028Z,26.500
2023-04-10T03:58:10.118Z,25.000
2023-04-10T03:59:10.254Z,24.200
2023-04-10T04:00:09.441Z,25.900
2023-04-10T04:01:09.636Z,24.900
2023-04-10T04:02:10.451Z,26.000
2023-04-10T04:03:10.365Z,24.900
2023-04-10T04:04:11.849Z,25.500
2023-04-10T04:07:10.020Z,26.100
2023-04-10T04:08:10.182Z,25.400
2023-04-10T04:09:09.358Z,25.200
2023-04-10T04:10:12.291Z,24.200
2023-04-10T04:12:09.528Z,25.800
2023-04-10T04:13:09.671Z,24.800
2023-04-10T04:14:10.599Z,25.200
2023-04-10T04:15:09.889Z,26.900
2023-04-10T04:16:10.250Z,25.100
2023-04-10T04:17:09.820Z,26.400
2023-04-10T04:18:10.219Z,25.500
2023-04-10T04:19:09.418Z,26.800
2023-04-10T04:20:09.623Z,27.300
2023-04-10T04:21:10.121Z,27.100
2023-04-10T04:22:09.204Z,24.800
2023-04-10T04:23:09.398Z,25.700
2023-04-10T04:24:10.029Z,26.900
2023-04-10T04:25:11.896Z,25.600
2023-04-10T04:26:10.348Z,24.800
2023-04-10T04:27:09.520Z,26.000
2023-04-10T04:28:09.685Z,26.300
2023-04-10T04:29:09.956Z,25.200
2023-04-10T04:30:10.102Z,24.800
2023-04-10T04:31:10.268Z,25.800
2023-04-10T04:32:09.585Z,24.900
2023-04-10T04:33:10.122Z,25.500
2023-04-10T04:34:09.782Z,25.600
2023-04-10T04:35:09.912Z,25.500
2023-04-10T04:36:10.283Z,24.700
2023-04-10T04:37:09.553Z,24.200
2023-04-10T04:38:09.772Z,25.900
2023-04-10T04:39:09.833Z,24.700
2023-04-10T04:40:10.997Z,25.700
2023-04-10T04:41:10.185Z,26.500
2023-04-10T04:42:09.236Z,25.500
2023-04-10T04:43:09.380Z,26.800
2023-04-10T04:44:10.089Z,25.600
2023-04-10T04:45:10.273Z,25.400
2023-04-10T04:46:09.564Z,25.500
2023-04-10T04:47:09.939Z,25.200
2023-04-10T04:48:10.109Z,24.800
2023-04-10T04:49:10.544Z,26.300
2023-04-10T04:50:09.739Z,26.300
2023-04-10T04:51:09.872Z,27.200
2023-04-10T04:52:10.041Z,27.200
2023-04-10T04:53:10.197Z,27.400
2023-04-10T04:54:09.976Z,25.700
2023-04-10T04:55:10.167Z,25.400
2023-04-10T04:56:09.441Z,27.600
2023-04-10T04:57:09.577Z,26.500
2023-04-10T04:58:09.763Z,25.900
2023-04-10T04:59:10.467Z,27.600
2023-04-10T05:00:09.720Z,28.100
2023-04-10T05:01:10.312Z,26.700
2023-04-10T05:02:09.716Z,26.500
2023-04-10T05:03:10.972Z,27.200
2023-04-10T05:04:10.088Z,27.000
2023-04-10T05:05:09.516Z,26.800
2023-04-10T05:06:09.677Z,26.200
2023-04-10T05:07:09.805Z,26.300
2023-04-10T05:08:10.020Z,24.800
2023-04-10T05:09:10.899Z,26.900
2023-04-10T05:10:10.065Z,27.100
2023-04-10T05:11:10.200Z,25.700
2023-04-10T05:12:09.368Z,26.800
2023-04-10T05:13:09.448Z,25.400
2023-04-10T05:14:09.583Z,24.800
2023-04-10T05:15:09.760Z,24.000
2023-04-10T05:16:10.177Z,26.200
2023-04-10T05:17:09.300Z,28.300
2023-04-10T05:18:09.946Z,26.900
2023-04-10T05:19:10.001Z,26.800
2023-04-10T05:20:11.313Z,26.100
2023-04-10T05:21:09.670Z,25.200
2023-04-10T05:22:10.026Z,24.600
2023-04-10T05:23:10.216Z,24.700
2023-04-10T05:24:09.508Z,25.600
2023-04-10T05:25:09.672Z,25.000
2023-04-10T05:26:10.055Z,24.700
2023-04-10T05:27:10.207Z,24.900
2023-04-10T05:28:09.644Z,24.100
2023-04-10T05:29:10.318Z,24.600
2023-04-10T05:30:09.422Z,24.500
2023-04-10T05:31:09.841Z,23.200
2023-04-10T05:32:10.584Z,24.200
2023-04-10T05:33:09.892Z,22.700
2023-04-10T05:34:10.079Z,23.800
2023-04-10T05:35:10.267Z,24.000
2023-04-10T05:36:09.597Z,23.900
2023-04-10T05:37:11.821Z,22.900
2023-04-10T05:40:09.912Z,23.900
2023-04-10T05:41:10.035Z,25.900
2023-04-10T05:42:10.193Z,23.800
2023-04-10T05:43:09.268Z,24.400
2023-04-10T05:44:09.418Z,22.700
2023-04-10T05:45:09.602Z,22.400
2023-04-10T05:46:10.002Z,25.000
2023-04-10T05:47:10.423Z,23.400
2023-04-10T05:48:09.549Z,24.500
2023-04-10T05:49:10.206Z,25.200
2023-04-10T05:50:09.287Z,22.500
2023-04-10T05:51:09.498Z,23.400
2023-04-10T05:52:09.753Z,24.400
2023-04-10T05:53:09.952Z,23.000
2023-04-10T05:54:10.103Z,24.000
2023-04-10T05:55:10.258Z,22.500
2023-04-10T05:56:09.335Z,24.500
2023-04-10T05:57:09.492Z,24.700
2023-04-10T05:58:09.670Z,24.400
2023-04-10T05:59:10.581Z,23.900
2023-04-10T06:00:09.817Z,23.100
2023-04-10T06:01:10.024Z,24.200
2023-04-10T06:02:10.470Z,22.200
2023-04-10T06:03:10.171Z,23.200
2023-04-10T06:04:10.069Z,22.300
2023-04-10T06:05:10.183Z,23.300
2023-04-10T06:06:09.430Z,23.300
2023-04-10T06:07:09.585Z,22.200
2023-04-10T06:08:13.323Z,22.800
2023-04-10T06:10:10.139Z,23.400
2023-04-10T06:11:09.279Z,21.600
2023-04-10T06:12:09.488Z,23.400
2023-04-10T06:13:12.501Z,23.000
2023-04-10T06:14:09.674Z,22.900
2023-04-10T06:15:09.868Z,22.000
2023-04-10T06:16:10.243Z,22.100
2023-04-10T06:17:09.441Z,23.300
2023-04-10T06:18:09.885Z,22.200
2023-04-10T06:19:10.867Z,22.400
2023-04-10T06:20:10.075Z,22.800
2023-04-10T06:21:10.228Z,21.200
2023-04-10T06:22:11.618Z,21.800
2023-04-10T06:24:12.969Z,22.700
2023-04-10T06:25:10.253Z,23.400
2023-04-10T06:26:09.364Z,22.900
2023-04-10T06:27:09.531Z,23.200
2023-04-10T06:28:09.729Z,22.800
2023-04-10T06:29:10.406Z,22.200
2023-04-10T06:30:09.529Z,24.000
2023-04-10T06:31:09.827Z,21.900
2023-04-10T06:32:10.490Z,23.700
2023-04-10T06:33:09.667Z,23.700
2023-04-10T06:34:09.812Z,24.800
2023-04-10T06:35:10.171Z,23.600
2023-04-10T06:36:09.704Z,23.800
2023-04-10T06:37:09.969Z,23.500
2023-04-10T06:38:10.096Z,24.900
2023-04-10T06:39:10.847Z,24.100
2023-04-10T06:41:09.855Z,25.600
2023-04-10T06:42:10.144Z,24.700
2023-04-10T06:43:09.299Z,25.600
2023-04-10T06:44:09.495Z,24.400
2023-04-10T06:45:09.660Z,24.700
2023-04-10T06:46:09.988Z,25.500
2023-04-10T06:47:10.364Z,25.400
2023-04-10T06:48:10.099Z,25.500
2023-04-10T06:49:10.511Z,25.500
2023-04-10T06:50:09.623Z,24.500
2023-04-10T06:51:10.086Z,25.400
2023-04-10T06:52:10.284Z,25.300
2023-04-10T06:53:09.551Z,25.500
2023-04-10T06:54:09.805Z,25.100
2023-04-10T06:55:09.986Z,25.400
2023-04-10T06:56:10.167Z,26.700
2023-04-10T06:57:09.696Z,24.900
2023-04-10T06:58:09.987Z,25.600
2023-04-10T06:59:10.568Z,25.400
2023-04-10T07:00:09.673Z,26.000
2023-04-10T07:01:10.073Z,25.200
2023-04-10T07:02:09.474Z,23.900
2023-04-10T07:03:09.878Z,23.700
2023-04-10T07:04:10.701Z,24.000
2023-04-10T07:05:09.973Z,25.200
2023-04-10T07:06:10.156Z,25.600
2023-04-10T07:07:09.345Z,23.500
2023-04-10T07:08:09.563Z,25.200
2023-04-10T07:09:10.381Z,24.400
2023-04-10T07:10:09.523Z,24.800
2023-04-10T07:11:09.670Z,23.700
2023-04-10T07:12:09.888Z,23.800
2023-04-10T07:13:10.092Z,23.200
2023-04-10T07:14:10.347Z,23.400
2023-04-10T07:15:09.539Z,23.800
2023-04-10T07:16:10.139Z,22.900
2023-04-10T07:17:09.474Z,24.200
2023-04-10T07:18:09.994Z,22.000
2023-04-10T07:19:10.664Z,23.300
2023-04-10T07:20:09.859Z,23.700
2023-04-10T07:21:10.096Z,24.800
2023-04-10T07:22:10.368Z,23.600
2023-04-10T07:23:09.556Z,23.800
2023-04-10T07:24:09.897Z,23.000
2023-04-10T07:25:10.192Z,23.400
2023-04-10T07:26:09.431Z,22.900
2023-04-10T07:27:09.649Z,23.000
2023-04-10T07:28:09.952Z,22.500
2023-04-10T07:29:11.108Z,21.900
2023-04-10T07:30:11.762Z,23.000
2023-04-10T07:31:09.544Z,22.200
2023-04-10T07:32:10.239Z,22.000
2023-04-10T07:33:10.008Z,23.500
2023-04-10T07:34:09.616Z,22.800
2023-04-10T07:35:09.795Z,21.900
2023-04-10T07:36:10.266Z,21.200
2023-04-10T07:37:09.775Z,22.100
2023-04-10T07:38:09.964Z,22.900
2023-04-10T07:39:10.783Z,22.300
2023-04-10T07:40:09.942Z,22.200
2023-04-10T07:41:11.116Z,21.400
2023-04-10T07:42:10.181Z,23.000
2023-04-10T07:43:11.119Z,21.500
2023-04-10T07:46:09.987Z,20.000
2023-04-10T07:47:10.270Z,21.200
2023-04-10T07:48:09.933Z,20.800
2023-04-10T07:49:11.007Z,20.300
2023-04-10T07:50:10.157Z,19.400
2023-04-10T07:56:09.372Z,18.300
2023-04-10T07:57:09.479Z,18.100
2023-04-10T07:58:09.635Z,17.400
2023-04-10T07:59:10.700Z,17.700
2023-04-10T08:00:09.944Z,17.900
2023-04-10T08:01:10.136Z,17.500
2023-04-10T08:02:09.620Z,16.600
2023-04-10T08:03:11.018Z,17.600
2023-04-10T08:04:10.526Z,18.400
2023-04-10T08:05:11.160Z,17.500
2023-04-10T08:06:09.435Z,17.900
2023-04-10T08:07:09.645Z,17.800
2023-04-10T08:08:09.789Z,17.800
2023-04-10T08:09:10.605Z,19.000
2023-04-10T08:10:09.745Z,17.500
2023-04-10T08:11:09.989Z,17.900
2023-04-10T08:12:10.221Z,17.500
2023-04-10T08:13:09.551Z,16.700
2023-04-10T08:14:09.733Z,17.300
2023-04-10T08:15:09.991Z,17.900
2023-04-10T08:16:10.236Z,17.200
2023-04-10T08:17:09.689Z,16.800
2023-04-10T08:18:10.211Z,16.800
2023-04-10T08:19:10.059Z,17.000
2023-04-10T08:20:10.902Z,17.200
2023-04-10T08:21:10.084Z,17.300
2023-04-10T08:22:10.238Z,18.100
2023-04-10T08:23:20.188Z,17.800
2023-04-10T08:25:10.134Z,17.800
2023-04-10T08:26:09.373Z,17.400
2023-04-10T08:27:09.810Z,18.700
2023-04-10T08:28:10.073Z,17.900
2023-04-10T08:29:10.743Z,16.400
2023-04-10T08:30:09.992Z,17.700
2023-04-10T08:31:10.645Z,17.700
2023-04-10T08:32:09.931Z,18.100
2023-04-10T08:33:10.324Z,18.000
2023-04-10T08:34:09.973Z,17.000
2023-04-10T08:35:10.115Z,18.400
2023-04-10T08:36:10.435Z,17.600
2023-04-10T08:37:12.013Z,16.700
2023-04-10T08:38:19.970Z,17.300
2023-04-10T08:40:10.334Z,16.100
2023-04-10T08:41:09.512Z,16.600
2023-04-10T08:42:09.624Z,16.300
2023-04-10T08:43:10.393Z,16.200
2023-04-10T08:44:10.091Z,14.900
2023-04-10T08:45:10.296Z,15.700
2023-04-10T08:46:09.688Z,16.200
2023-04-10T08:47:10.007Z,17.400
2023-04-10T08:48:10.294Z,16.600
2023-04-10T08:49:09.487Z,16.000
2023-04-10T08:50:09.819Z,15.700
2023-04-10T08:51:18.633Z,15.600
2023-04-10T08:53:09.587Z,15.400
2023-04-10T08:54:10.280Z,15.900
2023-04-10T08:55:09.473Z,15.800
2023-04-10T08:56:09.581Z,16.800
2023-04-10T08:57:12.160Z,15.700
2023-04-10T08:58:17.170Z,16.200
2023-04-10T09:01:09.490Z,16.400
2023-04-10T09:02:10.306Z,17.300
2023-04-10T09:03:10.173Z,16.900
2023-04-10T09:04:10.564Z,15.800
2023-04-10T09:06:09.496Z,16.500
2023-04-10T09:07:09.671Z,16.400
2023-04-10T09:08:09.871Z,15.900
2023-04-10T09:09:10.200Z,16.500
2023-04-10T09:10:09.366Z,16.600
2023-04-10T09:11:12.208Z,16.300
2023-04-10T09:16:10.551Z,16.000
2023-04-10T09:17:09.799Z,15.400
2023-04-10T09:18:10.212Z,15.500
2023-04-10T09:19:09.533Z,15.500
2023-04-10T09:20:09.731Z,16.000
2023-04-10T09:21:09.954Z,15.500
2023-04-10T09:22:10.218Z,14.500
2023-04-10T09:23:09.404Z,15.600
2023-04-10T09:24:09.964Z,15.600
2023-04-10T09:25:10.312Z,13.800
2023-04-10T09:26:09.775Z,14.800
2023-04-10T09:27:09.981Z,14.700
2023-04-10T09:28:10.407Z,14.700
2023-04-10T09:29:09.543Z,14.100
2023-04-10T09:30:09.740Z,15.300
2023-04-10T09:31:10.069Z,14.300
2023-04-10T09:32:09.300Z,14.600
2023-04-10T09:33:09.774Z,14.300
2023-04-10T09:34:10.667Z,14.700
2023-04-10T09:35:09.787Z,13.300
2023-04-10T09:36:09.996Z,13.700
2023-04-10T09:37:10.287Z,14.300
2023-04-10T09:38:09.412Z,13.000
2023-04-10T09:39:09.672Z,13.700
2023-04-10T09:40:09.963Z,13.800
2023-04-10T09:41:11.994Z,14.000
2023-04-10T09:43:09.467Z,13.600
2023-04-10T09:44:09.982Z,13.200
2023-04-10T09:45:10.147Z,13.000
2023-04-10T09:46:09.398Z,13.100
2023-04-10T09:47:10.216Z,12.400
2023-04-10T09:48:09.551Z,11.900
2023-04-10T09:49:09.850Z,13.100
2023-04-10T09:50:10.013Z,13.400
2023-04-10T09:51:13.368Z,13.000
2023-04-10T09:52:09.509Z,13.700
2023-04-10T09:53:09.712Z,13.200
2023-04-10T09:54:10.553Z,13.000
2023-04-10T09:55:09.711Z,12.700
2023-04-10T09:56:09.943Z,12.700
2023-04-10T09:57:10.140Z,12.800
2023-04-10T09:58:09.255Z,12.600
2023-04-10T09:59:09.857Z,12.600
2023-04-10T10:00:10.104Z,12.200
2023-04-10T10:01:10.249Z,12.400
2023-04-10T10:02:09.764Z,12.500
2023-04-10T10:03:10.870Z,11.200
2023-04-10T10:04:09.584Z,12.200
2023-04-10T10:05:10.120Z,11.300
2023-04-10T10:06:09.661Z,11.800
2023-04-10T10:07:09.881Z,12.800
2023-04-10T10:08:10.100Z,12.500
2023-04-10T10:09:10.687Z,13.000
2023-04-10T10:10:09.871Z,13.000
2023-04-10T10:11:10.092Z,12.200
2023-04-10T10:12:10.288Z,11.900
2023-04-10T10:13:09.423Z,11.900
2023-04-10T10:14:09.672Z,12.300
2023-04-10T10:15:10.354Z,12.500
2023-04-10T10:16:09.640Z,11.400
2023-04-10T10:17:09.811Z,11.600
2023-04-10T10:18:10.248Z,11.400
2023-04-10T10:19:09.990Z,11.400
2023-04-10T10:20:10.175Z,11.700
2023-04-10T10:21:09.365Z,11.300
2023-04-10T10:22:09.577Z,10.900
2023-04-10T10:23:09.856Z,12.100
2023-04-10T10:24:10.047Z,10.300
2023-04-10T10:25:10.204Z,11.200
2023-04-10T10:26:09.338Z,11.400
2023-04-10T10:27:09.528Z,10.800
2023-04-10T10:28:09.732Z,11.800
2023-04-10T10:29:10.765Z,10.600
2023-04-10T10:30:25.629Z,10.400
2023-04-10T10:32:12.818Z,11.500
2023-04-10T10:33:13.285Z,10.800
2023-04-10T10:34:12.597Z,10.100
2023-04-10T10:35:12.795Z,10.700
2023-04-10T10:36:13.032Z,10.300
2023-04-10T10:37:12.336Z,10.300
2023-04-10T10:38:12.575Z,10.800
2023-04-10T10:39:13.180Z,10.400
2023-04-10T10:40:12.332Z,10.700
2023-04-10T10:41:12.546Z,11.500
2023-04-10T10:42:12.714Z,9.500
2023-04-10T10:43:13.851Z,10.500
2023-04-10T10:44:13.031Z,10.300
2023-04-10T10:45:14.992Z,11.100
2023-04-10T10:47:12.759Z,10.000
2023-04-10T10:48:13.341Z,10.000
2023-04-10T10:49:13.049Z,9.700
2023-04-10T10:50:13.173Z,9.400
2023-04-10T10:51:12.284Z,10.200
2023-04-10T10:52:12.394Z,10.000
2023-04-10T10:53:12.636Z,9.000
2023-04-10T10:54:12.777Z,9.500
2023-04-10T10:55:17.958Z,11.600
2023-04-10T10:56:13.050Z,9.800
2023-04-10T10:57:13.326Z,9.400
2023-04-10T10:58:12.491Z,9.400
2023-04-10T10:59:13.453Z,10.000
2023-04-10T11:00:12.623Z,9.000
2023-04-10T11:01:12.897Z,9.400
2023-04-10T11:02:13.637Z,10.100
2023-04-10T11:03:13.786Z,8.900
2023-04-10T11:04:14.222Z,9.700
2023-04-10T11:06:12.800Z,8.300
2023-04-10T11:07:13.062Z,8.400
2023-04-10T11:08:13.273Z,8.000
2023-04-10T11:09:12.899Z,8.300
2023-04-10T11:10:13.087Z,8.500
2023-04-10T11:11:12.274Z,7.700
2023-04-10T11:12:12.423Z,8.200
2023-04-10T11:13:13.196Z,7.900
2023-04-10T11:14:12.324Z,9.700
2023-04-10T11:15:12.516Z,7.700
2023-04-10T11:16:12.884Z,7.300
2023-04-10T11:17:13.340Z,7.500
2023-04-10T11:19:25.405Z,7.900
2023-04-10T11:21:14.109Z,8.000
2023-04-10T11:22:13.441Z,7.500
2023-04-10T11:23:13.842Z,8.200
2023-04-10T11:24:14.177Z,8.400
2023-04-10T11:25:13.642Z,9.900
2023-04-10T11:26:13.805Z,8.000
2023-04-10T11:27:13.931Z,7.100
2023-04-10T11:28:14.228Z,7.700
2023-04-10T11:29:13.403Z,8.200
2023-04-10T11:30:13.582Z,7.500
2023-04-10T11:31:13.761Z,7.300
2023-04-10T11:32:14.293Z,7.000
2023-04-10T11:33:13.839Z,7.100
2023-04-10T11:34:14.031Z,6.900
2023-04-10T11:35:14.254Z,8.300
2023-04-10T11:36:13.535Z,8.500
2023-04-10T11:37:13.696Z,8.700
2023-04-10T11:38:14.107Z,8.200
2023-04-10T11:39:14.642Z,7.400
2023-04-10T11:40:13.876Z,8.000
2023-04-10T11:41:14.036Z,7.200
2023-04-10T11:42:14.203Z,7.700
2023-04-10T11:43:13.491Z,6.700
2023-04-10T11:44:13.812Z,7.600
2023-04-10T11:45:14.239Z,6.900
2023-04-10T11:46:13.568Z,8.000
2023-04-10T11:48:14.148Z,6.600
2023-04-10T11:49:14.336Z,7.100
2023-04-10T11:50:13.771Z,6.600
2023-04-10T11:51:13.931Z,6.900
2023-04-10T11:52:14.109Z,6.800
2023-04-10T11:53:14.236Z,6.900
2023-04-10T11:54:13.380Z,6.900
2023-04-10T11:55:13.556Z,7.100
2023-04-10T11:56:13.744Z,6.700
2023-04-10T11:57:13.949Z,7.600
2023-04-10T11:58:14.100Z,7.700
2023-04-10T11:59:14.585Z,7.300
2023-04-10T12:00:13.811Z,7.300
2023-04-10T12:01:14.003Z,6.700
2023-04-10T12:02:17.554Z,7.400
2023-04-10T12:03:14.215Z,7.600
2023-04-10T12:04:14.304Z,7.400
2023-04-10T12:05:14.751Z,7.900
2023-04-10T12:06:13.364Z,7.300
2023-04-10T12:07:13.577Z,7.100
2023-04-10T12:08:13.715Z,7.100
2023-04-10T12:09:14.466Z,6.400
2023-04-10T12:10:13.668Z,7.100
2023-04-10T12:11:13.824Z,7.900
2023-04-10T12:12:14.083Z,8.200
2023-04-10T12:13:14.283Z,8.500
2023-04-10T12:14:13.488Z,7.700
2023-04-10T12:15:13.652Z,7.600
2023-04-10T12:16:14.048Z,7.700
2023-04-10T12:17:13.404Z,8.700
2023-04-10T12:18:14.885Z,7.600
2023-04-10T12:20:13.885Z,7.400
2023-04-10T12:21:14.044Z,6.700
2023-04-10T12:22:14.197Z,6.200
2023-04-10T12:23:13.416Z,6.900
2023-04-10T12:24:13.656Z,7.300
2023-04-10T12:25:13.883Z,6.100
2023-04-10T12:26:14.083Z,6.900
2023-04-10T12:27:16.128Z,7.400
2023-04-10T12:39:12.667Z,7.300
2023-04-10T12:43:32.644Z,7.400
2023-04-10T12:44:35.527Z,7.200
2023-04-10T12:45:32.659Z,7.700
2023-04-10T12:46:33.351Z,7.100
2023-04-10T12:47:32.702Z,6.700
2023-04-10T12:48:33.345Z,7.800
2023-04-10T12:49:32.560Z,7.100
2023-04-10T12:50:32.783Z,6.600
2023-04-10T12:51:32.966Z,5.900
2023-04-10T12:52:33.915Z,6.800
2023-04-10T12:53:32.461Z,6.500
2023-04-10T12:54:32.716Z,6.600
2023-04-10T12:55:32.847Z,6.700
2023-04-10T12:56:33.061Z,6.800
2023-04-10T12:57:33.277Z,5.700
2023-04-10T12:58:32.440Z,6.400
2023-04-10T12:59:32.711Z,6.100
2023-04-10T13:00:33.052Z,6.900
2023-04-10T13:01:33.483Z,7.200
2023-04-10T13:02:33.406Z,6.800
2023-04-10T13:03:35.291Z,6.700
2023-04-10T13:04:34.269Z,6.600
2023-04-10T13:05:32.860Z,7.000
2023-04-10T13:06:33.618Z,6.900
2023-04-10T13:07:37.876Z,5.900
2023-04-10T13:09:34.214Z,5.900
2023-04-10T13:10:33.849Z,6.400
2023-04-10T13:11:33.279Z,6.500
2023-04-10T13:12:33.704Z,6.500
2023-04-10T13:13:34.588Z,5.700
2023-04-10T13:14:34.418Z,6.300
2023-04-10T13:16:33.729Z,6.400
2023-04-10T13:17:34.047Z,6.000
2023-04-10T13:18:34.143Z,5.900
2023-04-10T13:19:33.906Z,5.400
2023-04-10T13:20:33.426Z,5.800
2023-04-10T13:21:33.504Z,6.600
2023-04-10T13:22:32.672Z,6.700
2023-04-10T13:23:32.892Z,7.400
2023-04-10T13:24:34.178Z,7.700
2023-04-10T13:27:32.744Z,7.100
2023-04-10T13:28:32.928Z,6.100
2023-04-10T13:29:33.105Z,6.700
2023-04-10T13:30:33.279Z,6.400
2023-04-10T13:31:33.586Z,6.600
2023-04-10T13:32:34.555Z,6.000